sensor_id;sensor_type;location;lat;lon;timestamp;P1;durP1;ratioP1;P2;durP2;ratioP2
4704;SDS011;2366;51.332;6.610;2023-09-07T00:00:47;13.38;;;6.38;;
4704;SDS011;2366;51.332;6.610;2023-09-07T00:03:13;11.87;;;6.87;;
4704;SDS011;2366;51.332;6.610;2023-09-07T00:05:39;12.53;;;8.10;;
4704;SDS011;2366;51.332;6.610;2023-09-07T00:08:04;14.37;;;8.10;;
4704;SDS011;2366;51.332;6.610;2023-09-07T00:10:30;8.93;;;6.70;;
4704;SDS011;2366;51.332;6.610;2023-09-07T00:13:00;12.45;;;7.85;;
4704;SDS011;2366;51.332;6.610;2023-09-07T00:15:25;12.90;;;7.40;;
4704;SDS011;2366;51.332;6.610;2023-09-07T00:17:51;15.70;;;7.95;;
4704;SDS011;2366;51.332;6.610;2023-09-07T00:20:16;11.53;;;7.23;;
4704;SDS011;2366;51.332;6.610;2023-09-07T00:22:44;16.73;;;6.75;;
4704;SDS011;2366;51.332;6.610;2023-09-07T00:25:09;15.63;;;7.00;;
4704;SDS011;2366;51.332;6.610;2023-09-07T00:27:35;10.50;;;6.73;;
4704;SDS011;2366;51.332;6.610;2023-09-07T00:30:01;10.90;;;6.40;;
4704;SDS011;2366;51.332;6.610;2023-09-07T00:32:29;11.43;;;5.72;;
4704;SDS011;2366;51.332;6.610;2023-09-07T00:34:55;7.30;;;5.30;;
4704;SDS011;2366;51.332;6.610;2023-09-07T00:37:20;9.63;;;7.27;;
4704;SDS011;2366;51.332;6.610;2023-09-07T00:39:45;8.80;;;6.30;;
4704;SDS011;2366;51.332;6.610;2023-09-07T00:42:11;11.70;;;7.07;;
4704;SDS011;2366;51.332;6.610;2023-09-07T00:44:36;10.03;;;6.67;;
4704;SDS011;2366;51.332;6.610;2023-09-07T00:47:01;10.10;;;7.10;;
4704;SDS011;2366;51.332;6.610;2023-09-07T00:49:27;7.50;;;6.13;;
4704;SDS011;2366;51.332;6.610;2023-09-07T00:51:53;6.57;;;5.97;;
4704;SDS011;2366;51.332;6.610;2023-09-07T00:54:18;11.20;;;7.33;;
4704;SDS011;2366;51.332;6.610;2023-09-07T00:56:44;12.57;;;7.45;;
4704;SDS011;2366;51.332;6.610;2023-09-07T00:59:10;8.60;;;6.20;;
4704;SDS011;2366;51.332;6.610;2023-09-07T01:01:36;7.75;;;6.72;;
4704;SDS011;2366;51.332;6.610;2023-09-07T01:04:02;13.07;;;7.10;;
4704;SDS011;2366;51.332;6.610;2023-09-07T01:06:47;7.95;;;6.45;;
4704;SDS011;2366;51.332;6.610;2023-09-07T01:09:19;11.05;;;6.40;;
4704;SDS011;2366;51.332;6.610;2023-09-07T01:11:48;8.73;;;6.20;;
4704;SDS011;2366;51.332;6.610;2023-09-07T01:14:15;10.75;;;6.85;;
4704;SDS011;2366;51.332;6.610;2023-09-07T01:16:40;12.87;;;7.07;;
4704;SDS011;2366;51.332;6.610;2023-09-07T01:19:06;7.43;;;5.90;;
4704;SDS011;2366;51.332;6.610;2023-09-07T01:21:34;8.00;;;5.68;;
4704;SDS011;2366;51.332;6.610;2023-09-07T01:24:04;10.68;;;6.90;;
4704;SDS011;2366;51.332;6.610;2023-09-07T01:26:32;8.93;;;5.63;;
4704;SDS011;2366;51.332;6.610;2023-09-07T01:28:57;10.13;;;6.10;;
4704;SDS011;2366;51.332;6.610;2023-09-07T01:31:23;9.37;;;5.80;;
4704;SDS011;2366;51.332;6.610;2023-09-07T01:33:48;20.47;;;7.30;;
4704;SDS011;2366;51.332;6.610;2023-09-07T01:36:13;16.80;;;6.20;;
4704;SDS011;2366;51.332;6.610;2023-09-07T01:38:39;10.03;;;5.77;;
4704;SDS011;2366;51.332;6.610;2023-09-07T01:41:04;9.13;;;6.30;;
4704;SDS011;2366;51.332;6.610;2023-09-07T01:43:30;8.97;;;5.90;;
4704;SDS011;2366;51.332;6.610;2023-09-07T01:45:55;11.80;;;5.83;;
4704;SDS011;2366;51.332;6.610;2023-09-07T01:48:20;7.23;;;6.13;;
4704;SDS011;2366;51.332;6.610;2023-09-07T01:50:46;7.20;;;5.87;;
4704;SDS011;2366;51.332;6.610;2023-09-07T01:53:11;7.53;;;6.23;;
4704;SDS011;2366;51.332;6.610;2023-09-07T01:55:37;10.40;;;6.03;;
4704;SDS011;2366;51.332;6.610;2023-09-07T01:58:02;9.07;;;5.00;;
4704;SDS011;2366;51.332;6.610;2023-09-07T02:00:28;6.03;;;5.00;;
4704;SDS011;2366;51.332;6.610;2023-09-07T02:02:53;8.47;;;5.83;;
4704;SDS011;2366;51.332;6.610;2023-09-07T02:05:19;9.40;;;5.93;;
4704;SDS011;2366;51.332;6.610;2023-09-07T02:07:44;8.40;;;7.00;;
4704;SDS011;2366;51.332;6.610;2023-09-07T02:10:10;9.70;;;6.20;;
4704;SDS011;2366;51.332;6.610;2023-09-07T02:12:35;7.17;;;5.30;;
4704;SDS011;2366;51.332;6.610;2023-09-07T02:15:01;7.70;;;6.00;;
4704;SDS011;2366;51.332;6.610;2023-09-07T02:17:28;10.38;;;5.47;;
4704;SDS011;2366;51.332;6.610;2023-09-07T02:19:54;9.53;;;6.93;;
4704;SDS011;2366;51.332;6.610;2023-09-07T02:22:19;8.00;;;6.60;;
4704;SDS011;2366;51.332;6.610;2023-09-07T02:24:44;7.07;;;6.17;;
4704;SDS011;2366;51.332;6.610;2023-09-07T02:27:10;6.57;;;5.37;;
4704;SDS011;2366;51.332;6.610;2023-09-07T02:29:35;6.30;;;5.47;;
4704;SDS011;2366;51.332;6.610;2023-09-07T02:32:02;7.75;;;6.10;;
4704;SDS011;2366;51.332;6.610;2023-09-07T02:34:27;12.63;;;5.60;;
4704;SDS011;2366;51.332;6.610;2023-09-07T02:36:52;7.73;;;6.00;;
4704;SDS011;2366;51.332;6.610;2023-09-07T02:39:18;8.00;;;5.93;;
4704;SDS011;2366;51.332;6.610;2023-09-07T02:41:43;6.47;;;5.47;;
4704;SDS011;2366;51.332;6.610;2023-09-07T02:44:10;8.93;;;5.82;;
4704;SDS011;2366;51.332;6.610;2023-09-07T02:46:35;12.70;;;6.03;;
4704;SDS011;2366;51.332;6.610;2023-09-07T02:49:01;11.40;;;6.73;;
4704;SDS011;2366;51.332;6.610;2023-09-07T02:51:26;8.60;;;5.80;;
4704;SDS011;2366;51.332;6.610;2023-09-07T02:53:52;8.50;;;6.03;;
4704;SDS011;2366;51.332;6.610;2023-09-07T02:56:18;7.65;;;6.15;;
4704;SDS011;2366;51.332;6.610;2023-09-07T02:58:43;8.70;;;7.13;;
4704;SDS011;2366;51.332;6.610;2023-09-07T03:01:10;7.68;;;5.57;;
4704;SDS011;2366;51.332;6.610;2023-09-07T03:03:35;9.07;;;6.90;;
4704;SDS011;2366;51.332;6.610;2023-09-07T03:06:08;9.50;;;6.73;;
4704;SDS011;2366;51.332;6.610;2023-09-07T03:08:34;12.60;;;5.75;;
4704;SDS011;2366;51.332;6.610;2023-09-07T03:11:02;6.97;;;5.50;;
4704;SDS011;2366;51.332;6.610;2023-09-07T03:13:29;10.98;;;7.70;;
4704;SDS011;2366;51.332;6.610;2023-09-07T03:15:55;8.98;;;5.65;;
4704;SDS011;2366;51.332;6.610;2023-09-07T03:18:21;14.70;;;5.80;;
4704;SDS011;2366;51.332;6.610;2023-09-07T03:20:46;6.10;;;5.13;;
4704;SDS011;2366;51.332;6.610;2023-09-07T03:23:12;11.13;;;6.17;;
4704;SDS011;2366;51.332;6.610;2023-09-07T03:25:37;7.10;;;6.00;;
4704;SDS011;2366;51.332;6.610;2023-09-07T03:28:03;11.63;;;6.77;;
4704;SDS011;2366;51.332;6.610;2023-09-07T03:30:29;8.77;;;6.50;;
4704;SDS011;2366;51.332;6.610;2023-09-07T03:32:54;7.10;;;5.73;;
4704;SDS011;2366;51.332;6.610;2023-09-07T03:35:20;7.70;;;6.10;;
4704;SDS011;2366;51.332;6.610;2023-09-07T03:37:45;10.40;;;6.70;;
4704;SDS011;2366;51.332;6.610;2023-09-07T03:40:11;13.07;;;7.00;;
4704;SDS011;2366;51.332;6.610;2023-09-07T03:42:36;7.93;;;6.33;;
4704;SDS011;2366;51.332;6.610;2023-09-07T03:45:02;8.02;;;6.28;;
4704;SDS011;2366;51.332;6.610;2023-09-07T03:47:28;11.18;;;5.63;;
4704;SDS011;2366;51.332;6.610;2023-09-07T03:49:54;11.33;;;6.13;;
4704;SDS011;2366;51.332;6.610;2023-09-07T03:52:22;8.02;;;6.78;;
4704;SDS011;2366;51.332;6.610;2023-09-07T03:54:49;7.50;;;6.35;;
4704;SDS011;2366;51.332;6.610;2023-09-07T03:57:15;7.25;;;6.53;;
4704;SDS011;2366;51.332;6.610;2023-09-07T03:59:41;7.10;;;6.20;;
4704;SDS011;2366;51.332;6.610;2023-09-07T04:02:06;8.03;;;5.83;;
4704;SDS011;2366;51.332;6.610;2023-09-07T04:04:31;9.40;;;5.60;;
4704;SDS011;2366;51.332;6.610;2023-09-07T04:06:58;6.95;;;6.10;;
4704;SDS011;2366;51.332;6.610;2023-09-07T04:09:23;6.67;;;5.97;;
4704;SDS011;2366;51.332;6.610;2023-09-07T04:11:50;8.93;;;5.78;;
4704;SDS011;2366;51.332;6.610;2023-09-07T04:14:15;7.43;;;5.80;;
4704;SDS011;2366;51.332;6.610;2023-09-07T04:16:40;10.40;;;6.07;;
4704;SDS011;2366;51.332;6.610;2023-09-07T04:19:07;10.45;;;6.57;;
4704;SDS011;2366;51.332;6.610;2023-09-07T04:21:32;8.90;;;6.60;;
4704;SDS011;2366;51.332;6.610;2023-09-07T04:23:57;9.80;;;6.20;;
4704;SDS011;2366;51.332;6.610;2023-09-07T04:26:23;8.57;;;5.37;;
4704;SDS011;2366;51.332;6.610;2023-09-07T04:28:48;16.47;;;6.40;;
4704;SDS011;2366;51.332;6.610;2023-09-07T04:31:13;14.03;;;5.90;;
4704;SDS011;2366;51.332;6.610;2023-09-07T04:33:39;6.73;;;5.37;;
4704;SDS011;2366;51.332;6.610;2023-09-07T04:36:08;13.30;;;6.53;;
4704;SDS011;2366;51.332;6.610;2023-09-07T04:38:34;5.38;;;4.63;;
4704;SDS011;2366;51.332;6.610;2023-09-07T04:41:08;7.87;;;5.63;;
4704;SDS011;2366;51.332;6.610;2023-09-07T04:43:35;8.50;;;5.25;;
4704;SDS011;2366;51.332;6.610;2023-09-07T04:46:01;8.07;;;6.25;;
4704;SDS011;2366;51.332;6.610;2023-09-07T04:48:26;7.13;;;5.87;;
4704;SDS011;2366;51.332;6.610;2023-09-07T04:50:58;8.83;;;6.80;;
4704;SDS011;2366;51.332;6.610;2023-09-07T04:53:24;6.70;;;5.00;;
4704;SDS011;2366;51.332;6.610;2023-09-07T04:55:50;10.07;;;5.87;;
4704;SDS011;2366;51.332;6.610;2023-09-07T04:58:15;8.70;;;5.97;;
4704;SDS011;2366;51.332;6.610;2023-09-07T05:00:41;13.90;;;5.97;;
4704;SDS011;2366;51.332;6.610;2023-09-07T05:03:06;6.63;;;5.70;;
4704;SDS011;2366;51.332;6.610;2023-09-07T05:05:31;13.87;;;6.20;;
4704;SDS011;2366;51.332;6.610;2023-09-07T05:07:57;11.30;;;5.80;;
4704;SDS011;2366;51.332;6.610;2023-09-07T05:10:22;9.10;;;5.90;;
4704;SDS011;2366;51.332;6.610;2023-09-07T05:12:48;10.70;;;6.93;;
4704;SDS011;2366;51.332;6.610;2023-09-07T05:15:13;6.77;;;5.47;;
4704;SDS011;2366;51.332;6.610;2023-09-07T05:17:38;13.30;;;6.30;;
4704;SDS011;2366;51.332;6.610;2023-09-07T05:20:04;10.57;;;6.20;;
4704;SDS011;2366;51.332;6.610;2023-09-07T05:22:30;10.40;;;5.53;;
4704;SDS011;2366;51.332;6.610;2023-09-07T05:24:56;10.40;;;7.00;;
4704;SDS011;2366;51.332;6.610;2023-09-07T05:27:21;8.17;;;6.87;;
4704;SDS011;2366;51.332;6.610;2023-09-07T05:29:46;17.50;;;6.33;;
4704;SDS011;2366;51.332;6.610;2023-09-07T05:32:12;8.37;;;5.83;;
4704;SDS011;2366;51.332;6.610;2023-09-07T05:34:38;7.47;;;5.87;;
4704;SDS011;2366;51.332;6.610;2023-09-07T05:37:03;6.97;;;4.70;;
4704;SDS011;2366;51.332;6.610;2023-09-07T05:39:28;5.83;;;4.50;;
4704;SDS011;2366;51.332;6.610;2023-09-07T05:41:54;7.43;;;4.90;;
4704;SDS011;2366;51.332;6.610;2023-09-07T05:44:19;10.67;;;5.20;;
4704;SDS011;2366;51.332;6.610;2023-09-07T05:46:45;4.60;;;4.20;;
4704;SDS011;2366;51.332;6.610;2023-09-07T05:49:10;7.53;;;5.33;;
4704;SDS011;2366;51.332;6.610;2023-09-07T05:51:35;6.37;;;4.00;;
4704;SDS011;2366;51.332;6.610;2023-09-07T05:54:01;6.90;;;4.77;;
4704;SDS011;2366;51.332;6.610;2023-09-07T05:56:26;10.53;;;4.93;;
4704;SDS011;2366;51.332;6.610;2023-09-07T05:58:51;9.87;;;4.60;;
4704;SDS011;2366;51.332;6.610;2023-09-07T06:01:17;7.23;;;5.33;;
4704;SDS011;2366;51.332;6.610;2023-09-07T06:03:42;5.90;;;4.57;;
4704;SDS011;2366;51.332;6.610;2023-09-07T06:06:08;6.50;;;4.77;;
4704;SDS011;2366;51.332;6.610;2023-09-07T06:08:33;11.47;;;5.40;;
4704;SDS011;2366;51.332;6.610;2023-09-07T06:10:58;9.30;;;4.80;;
4704;SDS011;2366;51.332;6.610;2023-09-07T06:13:25;6.87;;;5.80;;
4704;SDS011;2366;51.332;6.610;2023-09-07T06:15:50;9.87;;;5.10;;
4704;SDS011;2366;51.332;6.610;2023-09-07T06:18:15;5.00;;;4.30;;
4704;SDS011;2366;51.332;6.610;2023-09-07T06:20:41;7.30;;;5.13;;
4704;SDS011;2366;51.332;6.610;2023-09-07T06:23:06;7.57;;;5.07;;
4704;SDS011;2366;51.332;6.610;2023-09-07T06:25:31;8.20;;;4.80;;
4704;SDS011;2366;51.332;6.610;2023-09-07T06:27:57;13.53;;;5.57;;
4704;SDS011;2366;51.332;6.610;2023-09-07T06:30:22;6.90;;;4.70;;
4704;SDS011;2366;51.332;6.610;2023-09-07T06:32:48;6.73;;;5.47;;
4704;SDS011;2366;51.332;6.610;2023-09-07T06:35:13;6.43;;;4.70;;
4704;SDS011;2366;51.332;6.610;2023-09-07T06:37:39;9.00;;;5.00;;
4704;SDS011;2366;51.332;6.610;2023-09-07T06:40:07;6.93;;;4.20;;
4704;SDS011;2366;51.332;6.610;2023-09-07T06:42:34;6.40;;;3.63;;
4704;SDS011;2366;51.332;6.610;2023-09-07T06:44:59;6.57;;;3.83;;
4704;SDS011;2366;51.332;6.610;2023-09-07T06:47:25;8.33;;;4.27;;
4704;SDS011;2366;51.332;6.610;2023-09-07T06:49:50;5.90;;;4.10;;
4704;SDS011;2366;51.332;6.610;2023-09-07T06:52:15;5.97;;;3.90;;
4704;SDS011;2366;51.332;6.610;2023-09-07T06:54:41;8.43;;;4.13;;
4704;SDS011;2366;51.332;6.610;2023-09-07T06:57:07;6.80;;;3.77;;
4704;SDS011;2366;51.332;6.610;2023-09-07T06:59:33;9.80;;;4.17;;
4704;SDS011;2366;51.332;6.610;2023-09-07T07:01:59;9.10;;;3.40;;
4704;SDS011;2366;51.332;6.610;2023-09-07T07:04:25;8.13;;;4.10;;
4704;SDS011;2366;51.332;6.610;2023-09-07T07:06:51;5.00;;;3.90;;
4704;SDS011;2366;51.332;6.610;2023-09-07T07:09:16;5.97;;;4.23;;
4704;SDS011;2366;51.332;6.610;2023-09-07T07:11:41;3.40;;;3.10;;
4704;SDS011;2366;51.332;6.610;2023-09-07T07:14:08;4.17;;;3.77;;
4704;SDS011;2366;51.332;6.610;2023-09-07T07:16:34;5.00;;;3.33;;
4704;SDS011;2366;51.332;6.610;2023-09-07T07:18:59;7.63;;;3.60;;
4704;SDS011;2366;51.332;6.610;2023-09-07T07:21:25;7.97;;;2.97;;
4704;SDS011;2366;51.332;6.610;2023-09-07T07:23:50;3.97;;;3.20;;
4704;SDS011;2366;51.332;6.610;2023-09-07T07:26:16;6.97;;;3.73;;
4704;SDS011;2366;51.332;6.610;2023-09-07T07:28:42;3.80;;;3.37;;
4704;SDS011;2366;51.332;6.610;2023-09-07T07:31:08;4.13;;;2.90;;
4704;SDS011;2366;51.332;6.610;2023-09-07T07:33:35;7.10;;;3.40;;
4704;SDS011;2366;51.332;6.610;2023-09-07T07:36:00;9.80;;;3.23;;
4704;SDS011;2366;51.332;6.610;2023-09-07T07:38:26;3.17;;;2.77;;
4704;SDS011;2366;51.332;6.610;2023-09-07T07:40:51;3.87;;;3.47;;
4704;SDS011;2366;51.332;6.610;2023-09-07T07:43:18;3.10;;;2.80;;
4704;SDS011;2366;51.332;6.610;2023-09-07T07:45:43;4.80;;;3.07;;
4704;SDS011;2366;51.332;6.610;2023-09-07T07:48:09;5.33;;;3.00;;
4704;SDS011;2366;51.332;6.610;2023-09-07T07:50:40;3.83;;;3.33;;
4704;SDS011;2366;51.332;6.610;2023-09-07T07:53:06;5.43;;;3.27;;
4704;SDS011;2366;51.332;6.610;2023-09-07T07:55:35;4.87;;;3.57;;
4704;SDS011;2366;51.332;6.610;2023-09-07T07:58:05;5.43;;;2.90;;
4704;SDS011;2366;51.332;6.610;2023-09-07T08:00:35;7.33;;;3.20;;
4704;SDS011;2366;51.332;6.610;2023-09-07T08:03:03;7.20;;;3.37;;
4704;SDS011;2366;51.332;6.610;2023-09-07T08:05:33;4.00;;;3.10;;
4704;SDS011;2366;51.332;6.610;2023-09-07T08:08:00;3.27;;;3.07;;
4704;SDS011;2366;51.332;6.610;2023-09-07T08:10:25;6.03;;;3.37;;
4704;SDS011;2366;51.332;6.610;2023-09-07T08:12:53;4.70;;;3.57;;
4704;SDS011;2366;51.332;6.610;2023-09-07T08:15:20;3.60;;;2.50;;
4704;SDS011;2366;51.332;6.610;2023-09-07T08:17:47;3.83;;;3.47;;
4704;SDS011;2366;51.332;6.610;2023-09-07T08:20:13;7.20;;;3.10;;
4704;SDS011;2366;51.332;6.610;2023-09-07T08:22:39;3.00;;;2.53;;
4704;SDS011;2366;51.332;6.610;2023-09-07T08:25:07;5.40;;;3.03;;
4704;SDS011;2366;51.332;6.610;2023-09-07T08:27:33;5.00;;;2.87;;
4704;SDS011;2366;51.332;6.610;2023-09-07T08:29:59;9.50;;;3.20;;
4704;SDS011;2366;51.332;6.610;2023-09-07T08:32:24;3.63;;;2.73;;
4704;SDS011;2366;51.332;6.610;2023-09-07T08:34:50;3.13;;;2.60;;
4704;SDS011;2366;51.332;6.610;2023-09-07T08:37:15;7.50;;;2.40;;
4704;SDS011;2366;51.332;6.610;2023-09-07T08:39:41;3.00;;;2.70;;
4704;SDS011;2366;51.332;6.610;2023-09-07T08:42:06;3.47;;;2.37;;
4704;SDS011;2366;51.332;6.610;2023-09-07T08:44:32;3.67;;;2.10;;
4704;SDS011;2366;51.332;6.610;2023-09-07T08:46:59;2.60;;;2.07;;
4704;SDS011;2366;51.332;6.610;2023-09-07T08:49:26;2.63;;;2.37;;
4704;SDS011;2366;51.332;6.610;2023-09-07T08:51:52;3.23;;;1.83;;
4704;SDS011;2366;51.332;6.610;2023-09-07T08:54:19;5.13;;;1.87;;
4704;SDS011;2366;51.332;6.610;2023-09-07T08:56:45;2.33;;;2.10;;
4704;SDS011;2366;51.332;6.610;2023-09-07T08:59:12;1.60;;;1.50;;
4704;SDS011;2366;51.332;6.610;2023-09-07T09:01:39;2.07;;;1.93;;
4704;SDS011;2366;51.332;6.610;2023-09-07T09:04:04;4.83;;;1.87;;
4704;SDS011;2366;51.332;6.610;2023-09-07T09:06:30;7.33;;;2.20;;
4704;SDS011;2366;51.332;6.610;2023-09-07T09:08:56;5.90;;;2.23;;
4704;SDS011;2366;51.332;6.610;2023-09-07T09:11:23;1.83;;;1.73;;
4704;SDS011;2366;51.332;6.610;2023-09-07T09:13:50;3.37;;;2.30;;
4704;SDS011;2366;51.332;6.610;2023-09-07T09:16:17;2.33;;;2.13;;
4704;SDS011;2366;51.332;6.610;2023-09-07T09:18:53;2.50;;;2.27;;
4704;SDS011;2366;51.332;6.610;2023-09-07T09:21:21;4.03;;;1.83;;
4704;SDS011;2366;51.332;6.610;2023-09-07T09:23:52;1.60;;;1.50;;
4704;SDS011;2366;51.332;6.610;2023-09-07T09:26:20;2.23;;;2.03;;
4704;SDS011;2366;51.332;6.610;2023-09-07T09:28:46;2.13;;;2.03;;
4704;SDS011;2366;51.332;6.610;2023-09-07T09:31:12;2.37;;;2.23;;
4704;SDS011;2366;51.332;6.610;2023-09-07T09:33:39;3.93;;;1.97;;
4704;SDS011;2366;51.332;6.610;2023-09-07T09:36:05;2.80;;;1.83;;
4704;SDS011;2366;51.332;6.610;2023-09-07T09:38:31;2.50;;;2.20;;
4704;SDS011;2366;51.332;6.610;2023-09-07T09:40:58;3.00;;;2.43;;
4704;SDS011;2366;51.332;6.610;2023-09-07T09:43:24;2.17;;;2.07;;
4704;SDS011;2366;51.332;6.610;2023-09-07T09:45:50;1.90;;;1.57;;
4704;SDS011;2366;51.332;6.610;2023-09-07T09:48:17;1.90;;;1.73;;
